Résultats

course du bout de l an
Course du Bout de l'An. Édition 2012.

10 Km
30/12/2012 à 00:00:00 - ()
1246 arrivant(e)s.


 
Les autres classements de cet évènement




Place▲ Temps Dossard Nom Prenom Categ #Categ Sexe #Sexe ClubVit Moy Diplôme Partager
1 00:32:37 1191 ZARRA ANTHONY SEM 1 M 1 AVIRON BAYONNAIS TRIATHLON18.40
2 00:32:59 850 RONDOT ANTOINE SEM 2 M 2 AVIRON BAYONNAIS18.19
3 00:33:01 1073 MEDUS LILIAN SEM 3 M 3 ATHLE SUD 7718.17
4 00:33:02 937 GIANELLO THIERRY V1M 1 M 4 18.16
5 00:33:26 992 KUENTZ BENOIT SEM 4 M 5 AB TRIATHLON17.95
6 00:33:30 763 IRIGOY JULIEN SEM 5 M 6 AVIRON BAYONNAIS17.91
7 00:34:02 655 BOUTET BENOIT SEM 6 M 7 ENA ANGERS17.63
8 00:34:24 1026 LARRIPA ERIC V1M 2 M 8 BILLERE TRIATHLON17.44
9 00:34:31 141 HIRIGOYEN ALEXIS ESM 1 M 9 17.38
10 00:34:36 50 LAURENCEAU JULIEN SEM 7 M 10 17.34
11 00:34:43 1887 BUSTNGORRY PIERRE SEM 8 M 11 17.28
12 00:35:21 224 SIMOVIS CEDRIC SEM 9 M 12 16.97
13 00:35:26 1135 SANCHEZ BARBARA SEF 1 F 1 BEC16.93
14 00:35:45 1841 BORDES PHILIPPE SEM 10 M 13 16.78
15 00:35:46 993 KUENTZ MARC V1M 3 M 14 SAM MERIGNAC TRIATHLON16.78
16 00:35:48 742 RIFFIS WILLIAM V1M 4 M 15 AVIRON BAYONNAIS16.76
17 00:35:54 592 ARRAYAGO STEPHANE V1M 5 M 16 16.71
18 00:35:57 1027 LARROQUE JEROME SEM 11 M 17 XIBEROTARRAK16.69
19 00:35:57 301 SEGAS CHRISTOPHE SEM 12 M 18 AC POUILLON (N° 040016)16.69
20 00:35:58 664 CALDUMBIDE ERIC SEM 13 M 19 16.68
21 00:36:08 307 MEHATS CLAUDE SEM 14 M 20 PAYS BASQUE ATHLETISME16.61
22 00:36:16 1039 LE-BRIS CEDRIC SEM 15 M 21 AVIRON BAYONNAIS TRIATHLON16.54
23 00:36:24 1802 BERGARA JEROME SEM 16 M 22 16.48
24 00:36:25 1862 MURTA JOSE V1M 6 M 23 FFA 35229616.48
25 00:36:59 309 MEHATS DANIEL SEM 17 M 24 PAYS BASQUE ATHLETISME16.22
26 00:37:04 980 IZAAC JEAN-MARIE SEM 18 M 25 PAU PYRENEES AVENTURE16.19
27 00:37:10 84 VIGNOLLE ERIC V1M 7 M 26 16.14
28 00:37:12 649 BOURGEOIS DIDIER SEM 19 M 27 16.13
29 00:37:16 726 LUNEL ERIC V1M 8 M 28 9.90
30 00:37:25 805 BOUDY CEDRIC SEM 20 M 29 9.90
31 00:37:26 585 GIPOULOU JEAN-JACQUES V2M 1 M 30 STADE MONT DE MARSAN9.90
32 00:37:31 920 FILLON RAPHAEL SEM 21 M 31 XIBEROTARRAK15.99
33 00:37:31 208 LARRONDE MICHEL V2M 2 M 32 15.99
34 00:37:31 905 GOYHEX GILLES SEM 22 M 33 XIBEROTARRAK15.99
35 00:37:39 180 GUILLON PATRICE V1M 9 M 34 15.94
36 00:37:43 1070 MAZENC SOPHIE SEF 2 F 2 STADE RODEZ ATHLETISME15.91
37 00:37:43 1032 LAUREDE GILLES V1M 10 M 35 AC POUILLON15.91
38 00:37:44 306 LEGER CHRISTOPHE SEM 23 M 36 15.90
39 00:37:49 1893 HARGUINDEGUY LAURENT V1M 11 M 37 15.87
40 00:37:55 1880 LEPAGE LUC SEM 24 M 38 15.82
41 00:37:55 1182 VIOLLET REMI ESM 2 M 39 15.82
42 00:37:56 697 CHABAN BENJAMIN SEM 25 M 40 CA MORCENX15.82
43 00:38:04 381 ETCHEVERRY CHRISTIAN V1M 12 M 41 15.76
44 00:38:05 191 AMESTOY FREDERIC SEM 26 M 42 15.75
45 00:38:06 563 ZAMORA STEPHANE SEM 27 M 43 15.75
46 00:38:08 1069 MAURIN CHARLOTTE SEF 3 F 3 OSH HYERES15.73
47 00:38:14 1883 LAPLACE PIERRE SEM 28 M 44 15.69
48 00:38:16 831 GOROSTEGUI FREDERIC SEM 29 M 45 15.68
49 00:38:18 1871 MAS OLIVIER V1M 13 M 46 15.67
50 00:38:29 1886 FEUILLET BATISTE JUM 1 M 47 15.59
51 00:38:40 1806 REBY FREDERIC SEM 30 M 48 15.52
52 00:38:41 328 INCONNU SEM 31 M 49 15.51
53 00:38:48 39 DOYAMBEHERE SEBASTIEN SEM 32 M 50 15.46
54 00:38:51 1099 PEDOUAN ERIC SEM 33 M 51 15.44
55 00:38:54 673 CANDELE HUBERT V1M 14 M 52 15.42
56 00:38:57 1013 LAHEUGUERE THIBAULT SEM 34 M 53 15.40
57 00:39:00 718 GRACIET JEROME SEM 35 M 54 15.38
58 00:39:05 148 HOURTE VINCENT SEM 36 M 55 15.35
59 00:39:10 476 POEYDOMENGE PIERRE SEM 37 M 56 15.32
60 00:39:19 138 PROUST THIERRY SEM 38 M 57 15.26
61 00:39:48 557 JEANNEAU PASCAL V2M 3 M 58 9.90
62 00:39:48 1049 LE-TESTU JOSSELIN SEM 39 M 59 STADE FRANCAIS TRIATHLON9.90
63 00:39:50 8 GUILCOU MICHEL ESM 3 M 60 9.90
64 00:39:53 711 CAUVIN FREDERIC V1M 15 M 61 9.90
65 00:39:54 58 ORTET HERVE V1M 16 M 62 9.90
66 00:40:01 1043 LE-GALL FRANCK SEM 40 M 63 14.99
67 00:40:02 764 BIDEGAIN DENIS SEM 41 M 64 14.99
68 00:40:04 1143 SEGOVIANO ANTOINE V3M 1 M 65 ANGLET FRANCE TRIATHLON14.98
69 00:40:04 333 DOYHAMBOUR OLIVIER V1M 17 M 66 14.98
70 00:40:06 757 LESTAGE JULIEN SEM 42 M 67 AVIRON BAYONNAIS14.96
71 00:40:07 206 IZQUIRDO JEAN-MARIE SEM 43 M 68 14.96
72 00:40:08 1089 MOULIN ERIC V1M 18 M 69 ANGLET FRANCE TRIATHLON14.95
73 00:40:08 343 TROUNDAY MARCEL SEM 44 M 70 14.95
74 00:40:11 678 CARLOT LAURENT V1M 19 M 71 AC BOULOGNE BILLANCOURT14.93
75 00:40:15 621 BANEAT YANN V1M 20 M 72 ANGLET FRANCE TRIATHLON14.91
76 00:40:17 44 LAGRABE PHILIPPE V2M 4 M 73 14.89
77 00:40:28 153 LABEGUERIE DIDIER V1M 21 M 74 AS ASCAIN14.83
78 00:40:30 186 HIRIGOYEN SEBASTIEN SEM 45 M 75 14.81
79 00:40:34 1133 SALAUN YANN SEM 46 M 76 MEUDON TRIATHLON14.79
80 00:40:39 1074 MENAUT RICHARD SEM 47 M 77 CA MORCENX14.76
81 00:40:39 398 SIEULANNE PATRICK V2M 5 M 78 14.76
82 00:40:42 990 JULIAC FRANCOIS SEM 48 M 79 APA JOGGING ST SEVER14.74
83 00:40:43 279 JULES MATHIEU SEM 49 M 80 14.74
84 00:40:51 903 ESQUERRA FRANCK V1M 22 M 81 14.69
85 00:40:55 715 REBEILLE FLORENCE ESF 1 F 4 BLAGNAC SC14.66
86 00:40:55 508 SALIN GERARD V2M 6 M 82 14.66
87 00:40:59 395 ITURRIA MATHIEU SEM 50 M 83 14.64
88 00:41:00 1181 VINSONNEAU DAVID SEM 51 M 84 TEAM RAIDLIGHT GUINOT14.63
89 00:41:02 1122 QUILLACQ PIERRE V1M 23 M 85 14.62
90 00:41:03 1030 LASSERRE BRUNO SEM 52 M 86 14.62
91 00:41:06 1083 MONCLA YVES SEM 53 M 87 TUC TRIATHLON14.60
92 00:41:06 312 GOUAUX STEPHANE SEM 54 M 88 AVIRON BAYONNAIS14.60
93 00:41:08 445 ELHORRIBURE THIERRY V1M 24 M 89 TEAM CONSEILS COURSEAPIED.COM14.59
94 00:41:11 581 POURTAU DAVID SEM 55 M 90 14.57
95 00:41:18 102 HERRERO MATHIEU CAM 1 M 91 14.53
96 00:41:18 1831 DELPRADO PASCALE V1M 25 M 92 14.53
97 00:41:20 115 CHABAGNO JEAN-MICHEL V3M 2 M 93 14.52
98 00:41:32 750 DUPRAT GREGORY SEM 56 M 94 14.45
99 00:41:32 915 FAUSSURIER STEPHANE V1M 26 M 95 AVIRON BAYONNAIS TRIATHLON14.45
100 00:41:33 133 BROUSMICHE HERVE SEM 57 M 96 14.44
101 00:41:39 976 IMPEDOVO DAVID SEM 58 M 97 CA MORCENX14.41